Aérodrome :
LOGIN :

S'inscrire | Disclaimer

   EN    FR    IT 

 










Légende :    VFR   VFR Marginal   IFR   IFR Intensif   IFR Très Intensif
Visi : 
Plafond : 
>= 8 km
>= 3000ft
5 à 8 km
1000 à 3000 ft
1500m à 5 km
500 à 1000 ft
800 à 1500m
200 à 500 ft
< 800m
< 200 ft
Symboles :   Orages  Brouillard  Fortes neiges  Fortes précipitations  Vent > 20 kt
SIGMETs :   Divers  Orages  Givrage  Turbulence  Onde Orograph.  Cendres Volcan.







- Altitude de l'aérodrome : 489 ft
- Code IATA : GDN


EPGD - Gdansk

METARs EXPIRÉS :
  • 241430Z 23014KT 9999 -RA FEW006 BKN013 18/15 Q1008
  • 241400Z 24013KT 9999 -RA FEW009 BKN019 18/14 Q1008
  • 241330Z 23010KT 200V270 9999 SCT016 BKN019 18/14 Q1008
  • 241300Z 24011KT 9999 BKN014 17/14 Q1008
  • 241230Z 24013KT 9999 BKN013 OVC016 17/14 Q1008
  • 241200Z 25012KT 9999 SCT012 OVC016 17/14 Q1008

TAF TAF EPGD
Valide du 23 à 18h jusqu'au 24 à 18h UTC


231730Z 2318/2418 04005KT 9999 SCT020
BECMG 2318/2320 27014KT -RA BKN010
PROB40
TEMPO 2320/2403 3000 RA BR BKN004
BECMG 2408/2410 BKN014
Pas de NOTAMs connus pour ce terrain.



MET'MAP, la Météo Aéronautique d'un coup d'oeil ! - Copyright ORBIFLY Décembre 2007 - Disclaimer

ORBIFLY MET'MAP TEAM :

Programmation & Développement : Alexandra Zaïnal
Conception & Développement : Baudouin d'Aumeries
Co-Programmation & Développement : Marc-Olivier Méhu
Soutien technique & logistique : Manuel Goepfert

Contact : metmap@orbifly.com




SOURCES & CREDITS :

   NOAA